Terminal Aerodrome Forecast
Issued by NWS Cheyenne, WY

Home | Current Version | Previous Version | Text Only | Print | Product List | Glossary On
Versions: 1 2 3 4 5 6 7 8 9 10 11 12 13 14 15 16 17 18 19 20 21 22 23 24 25 26 27 28
000
FTUS45 KCYS 192331
TAFCYS
TAF
KCYS 192331Z 2000/2024 09012KT 1SM -SN BR OVC010
      TEMPO 2000/2002 1/4SM +SN VV002
     FM200500 02012KT 2SM -SN BR OVC015
     FM201000 36008KT 6SM -SN BR BKN050
     FM201200 36012KT P6SM BKN070=

USA.gov is the U.S. government's official web portal to all federal, state and local government web resources and services.